sensor_id;sensor_type;location;lat;lon;timestamp;pressure;altitude;pressure_sealevel;temperature;humidity
39773;BME280;25451;51.960;6.250;2024-03-17T00:01:06;102244.03;;;6.53;74.40
39773;BME280;25451;51.960;6.250;2024-03-17T00:03:31;102242.50;;;6.50;74.60
39773;BME280;25451;51.960;6.250;2024-03-17T00:06:00;102233.41;;;6.50;74.76
39773;BME280;25451;51.960;6.250;2024-03-17T00:08:26;102233.41;;;6.50;74.47
39773;BME280;25451;51.960;6.250;2024-03-17T00:10:52;102235.13;;;6.51;74.53
39773;BME280;25451;51.960;6.250;2024-03-17T00:13:18;102225.19;;;6.50;74.44
39773;BME280;25451;51.960;6.250;2024-03-17T00:15:44;102224.53;;;6.48;74.61
39773;BME280;25451;51.960;6.250;2024-03-17T00:18:10;102223.69;;;6.47;74.48
39773;BME280;25451;51.960;6.250;2024-03-17T00:20:36;102216.13;;;6.49;74.36
39773;BME280;25451;51.960;6.250;2024-03-17T00:23:02;102213.38;;;6.49;74.77
39773;BME280;25451;51.960;6.250;2024-03-17T00:25:27;102212.72;;;6.47;74.32
39773;BME280;25451;51.960;6.250;2024-03-17T00:27:52;102203.44;;;6.48;74.30
39773;BME280;25451;51.960;6.250;2024-03-17T00:30:20;102208.25;;;6.46;74.61
39773;BME280;25451;51.960;6.250;2024-03-17T00:32:46;102204.84;;;6.44;74.13
39773;BME280;25451;51.960;6.250;2024-03-17T00:35:12;102206.38;;;6.47;74.21
39773;BME280;25451;51.960;6.250;2024-03-17T00:37:39;102199.38;;;6.44;74.46
39773;BME280;25451;51.960;6.250;2024-03-17T00:40:05;102205.72;;;6.45;74.28
39773;BME280;25451;51.960;6.250;2024-03-17T00:42:31;102200.38;;;6.43;74.90
39773;BME280;25451;51.960;6.250;2024-03-17T00:44:57;102198.69;;;6.42;74.55
39773;BME280;25451;51.960;6.250;2024-03-17T00:47:25;102192.34;;;6.42;74.44
39773;BME280;25451;51.960;6.250;2024-03-17T00:49:50;102192.53;;;6.40;74.75
39773;BME280;25451;51.960;6.250;2024-03-17T00:52:16;102194.41;;;6.40;74.50
39773;BME280;25451;51.960;6.250;2024-03-17T00:54:42;102191.88;;;6.38;74.58
39773;BME280;25451;51.960;6.250;2024-03-17T00:57:07;102191.00;;;6.38;74.66
39773;BME280;25451;51.960;6.250;2024-03-17T00:59:32;102195.63;;;6.37;75.05
39773;BME280;25451;51.960;6.250;2024-03-17T01:01:58;102196.69;;;6.36;74.49
39773;BME280;25451;51.960;6.250;2024-03-17T01:04:23;102188.81;;;6.33;74.51
39773;BME280;25451;51.960;6.250;2024-03-17T01:06:48;102187.78;;;6.34;74.90
39773;BME280;25451;51.960;6.250;2024-03-17T01:09:14;102180.78;;;6.32;74.94
39773;BME280;25451;51.960;6.250;2024-03-17T01:11:39;102182.00;;;6.29;75.13
39773;BME280;25451;51.960;6.250;2024-03-17T01:14:05;102182.38;;;6.26;75.24
39773;BME280;25451;51.960;6.250;2024-03-17T01:16:30;102176.88;;;6.26;74.44
39773;BME280;25451;51.960;6.250;2024-03-17T01:18:55;102182.38;;;6.26;74.98
39773;BME280;25451;51.960;6.250;2024-03-17T01:21:22;102180.66;;;6.25;74.76
39773;BME280;25451;51.960;6.250;2024-03-17T01:23:48;102189.94;;;6.24;75.28
39773;BME280;25451;51.960;6.250;2024-03-17T01:26:13;102175.56;;;6.22;75.41
39773;BME280;25451;51.960;6.250;2024-03-17T01:28:39;102182.91;;;6.22;75.18
39773;BME280;25451;51.960;6.250;2024-03-17T01:31:07;102164.13;;;6.19;74.74
39773;BME280;25451;51.960;6.250;2024-03-17T01:33:32;102167.00;;;6.17;75.08
39773;BME280;25451;51.960;6.250;2024-03-17T01:35:57;102170.63;;;6.18;74.83
39773;BME280;25451;51.960;6.250;2024-03-17T01:38:23;102169.09;;;6.15;74.83
39773;BME280;25451;51.960;6.250;2024-03-17T01:40:48;102173.53;;;6.16;75.17
39773;BME280;25451;51.960;6.250;2024-03-17T01:43:13;102167.75;;;6.11;75.18
39773;BME280;25451;51.960;6.250;2024-03-17T01:45:39;102176.63;;;6.13;75.14
39773;BME280;25451;51.960;6.250;2024-03-17T01:48:11;102166.53;;;6.14;75.55
39773;BME280;25451;51.960;6.250;2024-03-17T01:50:37;102165.50;;;6.15;74.76
39773;BME280;25451;51.960;6.250;2024-03-17T01:53:05;102160.03;;;6.15;75.06
39773;BME280;25451;51.960;6.250;2024-03-17T01:55:37;102153.88;;;6.13;75.27
39773;BME280;25451;51.960;6.250;2024-03-17T01:58:03;102154.22;;;6.10;75.06
39773;BME280;25451;51.960;6.250;2024-03-17T02:00:28;102145.81;;;6.11;75.00
39773;BME280;25451;51.960;6.250;2024-03-17T02:02:56;102144.13;;;6.10;75.13
39773;BME280;25451;51.960;6.250;2024-03-17T02:05:21;102142.59;;;6.08;75.09
39773;BME280;25451;51.960;6.250;2024-03-17T02:07:46;102149.59;;;6.10;74.98
39773;BME280;25451;51.960;6.250;2024-03-17T02:10:12;102147.22;;;6.07;75.23
39773;BME280;25451;51.960;6.250;2024-03-17T02:12:37;102148.28;;;6.06;75.31
39773;BME280;25451;51.960;6.250;2024-03-17T02:15:03;102138.31;;;6.05;75.12
39773;BME280;25451;51.960;6.250;2024-03-17T02:17:32;102137.31;;;6.06;75.67
39773;BME280;25451;51.960;6.250;2024-03-17T02:19:58;102142.78;;;6.06;75.03
39773;BME280;25451;51.960;6.250;2024-03-17T02:22:23;102133.03;;;6.04;75.34
39773;BME280;25451;51.960;6.250;2024-03-17T02:24:48;102128.41;;;6.04;75.31
39773;BME280;25451;51.960;6.250;2024-03-17T02:27:14;102134.09;;;6.03;75.05
39773;BME280;25451;51.960;6.250;2024-03-17T02:29:39;102131.50;;;6.01;75.25
39773;BME280;25451;51.960;6.250;2024-03-17T02:32:06;102120.53;;;6.01;75.12
39773;BME280;25451;51.960;6.250;2024-03-17T02:34:35;102125.56;;;5.98;75.22
39773;BME280;25451;51.960;6.250;2024-03-17T02:37:03;102127.06;;;6.00;75.64
39773;BME280;25451;51.960;6.250;2024-03-17T02:39:30;102130.16;;;5.97;75.40
39773;BME280;25451;51.960;6.250;2024-03-17T02:42:06;102130.84;;;5.99;75.34
39773;BME280;25451;51.960;6.250;2024-03-17T02:44:33;102127.25;;;5.99;75.37
39773;BME280;25451;51.960;6.250;2024-03-17T02:46:59;102111.38;;;5.94;75.50
39773;BME280;25451;51.960;6.250;2024-03-17T02:49:28;102119.41;;;5.96;75.03
39773;BME280;25451;51.960;6.250;2024-03-17T02:52:00;102118.72;;;5.94;75.13
39773;BME280;25451;51.960;6.250;2024-03-17T02:54:26;102114.28;;;5.93;75.72
39773;BME280;25451;51.960;6.250;2024-03-17T02:56:51;102117.69;;;5.95;75.00
39773;BME280;25451;51.960;6.250;2024-03-17T02:59:16;102123.34;;;5.93;75.35
39773;BME280;25451;51.960;6.250;2024-03-17T03:01:42;102127.81;;;5.94;75.25
39773;BME280;25451;51.960;6.250;2024-03-17T03:04:07;102124.22;;;5.94;75.47
39773;BME280;25451;51.960;6.250;2024-03-17T03:06:34;102121.66;;;5.92;75.47
39773;BME280;25451;51.960;6.250;2024-03-17T03:08:59;102123.53;;;5.92;75.87
39773;BME280;25451;51.960;6.250;2024-03-17T03:11:24;102120.31;;;5.88;75.14
39773;BME280;25451;51.960;6.250;2024-03-17T03:13:51;102116.72;;;5.88;75.49
39773;BME280;25451;51.960;6.250;2024-03-17T03:16:16;102116.72;;;5.88;75.48
39773;BME280;25451;51.960;6.250;2024-03-17T03:18:43;102125.13;;;5.86;75.68
39773;BME280;25451;51.960;6.250;2024-03-17T03:21:10;102115.88;;;5.87;75.44
39773;BME280;25451;51.960;6.250;2024-03-17T03:23:36;102113.31;;;5.85;75.49
39773;BME280;25451;51.960;6.250;2024-03-17T03:26:02;102112.25;;;5.86;75.35
39773;BME280;25451;51.960;6.250;2024-03-17T03:28:30;102127.88;;;5.86;75.58
39773;BME280;25451;51.960;6.250;2024-03-17T03:30:55;102114.34;;;5.84;75.71
39773;BME280;25451;51.960;6.250;2024-03-17T03:33:21;102126.16;;;5.85;75.51
39773;BME280;25451;51.960;6.250;2024-03-17T03:35:47;102128.03;;;5.84;75.79
39773;BME280;25451;51.960;6.250;2024-03-17T03:38:16;102123.75;;;5.82;75.86
39773;BME280;25451;51.960;6.250;2024-03-17T03:40:42;102120.69;;;5.85;75.72
39773;BME280;25451;51.960;6.250;2024-03-17T03:43:11;102119.81;;;5.84;75.80
39773;BME280;25451;51.960;6.250;2024-03-17T03:45:36;102113.50;;;5.84;75.97
39773;BME280;25451;51.960;6.250;2024-03-17T03:48:03;102120.88;;;5.83;75.88
39773;BME280;25451;51.960;6.250;2024-03-17T03:50:29;102121.72;;;5.84;75.92
39773;BME280;25451;51.960;6.250;2024-03-17T03:52:54;102121.34;;;5.87;75.84
39773;BME280;25451;51.960;6.250;2024-03-17T03:55:20;102116.06;;;5.85;75.92
39773;BME280;25451;51.960;6.250;2024-03-17T03:57:45;102117.06;;;5.84;75.71
39773;BME280;25451;51.960;6.250;2024-03-17T04:00:16;102106.97;;;5.85;75.67
39773;BME280;25451;51.960;6.250;2024-03-17T04:02:42;102109.38;;;5.88;76.05
39773;BME280;25451;51.960;6.250;2024-03-17T04:05:08;102108.97;;;5.91;75.45
39773;BME280;25451;51.960;6.250;2024-03-17T04:07:34;102103.50;;;5.91;75.63
39773;BME280;25451;51.960;6.250;2024-03-17T04:10:01;102103.31;;;5.93;76.16
39773;BME280;25451;51.960;6.250;2024-03-17T04:12:27;102098.88;;;5.92;76.15
39773;BME280;25451;51.960;6.250;2024-03-17T04:14:52;102102.28;;;5.94;76.23
39773;BME280;25451;51.960;6.250;2024-03-17T04:17:21;102099.16;;;5.97;75.75
39773;BME280;25451;51.960;6.250;2024-03-17T04:19:53;102089.06;;;5.97;75.71
39773;BME280;25451;51.960;6.250;2024-03-17T04:22:20;102094.19;;;6.00;75.61
39773;BME280;25451;51.960;6.250;2024-03-17T04:24:46;102085.13;;;6.00;75.79
39773;BME280;25451;51.960;6.250;2024-03-17T04:27:12;102081.16;;;6.02;76.39
39773;BME280;25451;51.960;6.250;2024-03-17T04:29:39;102083.72;;;6.04;75.63
39773;BME280;25451;51.960;6.250;2024-03-17T04:32:05;102082.69;;;6.05;76.01
39773;BME280;25451;51.960;6.250;2024-03-17T04:34:31;102073.59;;;6.04;76.04
39773;BME280;25451;51.960;6.250;2024-03-17T04:36:56;102070.47;;;6.07;76.05
39773;BME280;25451;51.960;6.250;2024-03-17T04:39:22;102061.22;;;6.08;76.30
39773;BME280;25451;51.960;6.250;2024-03-17T04:41:48;102063.13;;;6.08;76.50
39773;BME280;25451;51.960;6.250;2024-03-17T04:44:13;102052.63;;;6.11;75.73
39773;BME280;25451;51.960;6.250;2024-03-17T04:46:38;102051.59;;;6.12;75.81
39773;BME280;25451;51.960;6.250;2024-03-17T04:49:04;102052.63;;;6.11;76.01
39773;BME280;25451;51.960;6.250;2024-03-17T04:51:29;102054.63;;;6.17;76.16
39773;BME280;25451;51.960;6.250;2024-03-17T04:53:54;102054.63;;;6.17;76.32
39773;BME280;25451;51.960;6.250;2024-03-17T04:56:20;102051.88;;;6.17;76.00
39773;BME280;25451;51.960;6.250;2024-03-17T04:58:46;102051.53;;;6.20;76.15
39773;BME280;25451;51.960;6.250;2024-03-17T05:01:11;102050.47;;;6.21;76.06
39773;BME280;25451;51.960;6.250;2024-03-17T05:03:38;102052.38;;;6.21;76.43
39773;BME280;25451;51.960;6.250;2024-03-17T05:06:04;102052.00;;;6.24;76.57
39773;BME280;25451;51.960;6.250;2024-03-17T05:08:30;102041.50;;;6.27;76.00
39773;BME280;25451;51.960;6.250;2024-03-17T05:10:57;102049.56;;;6.29;76.21
39773;BME280;25451;51.960;6.250;2024-03-17T05:13:24;102039.41;;;6.29;76.80
39773;BME280;25451;51.960;6.250;2024-03-17T05:15:49;102035.00;;;6.28;76.51
39773;BME280;25451;51.960;6.250;2024-03-17T05:18:14;102044.53;;;6.32;76.14
39773;BME280;25451;51.960;6.250;2024-03-17T05:20:40;102041.41;;;6.35;76.52
39773;BME280;25451;51.960;6.250;2024-03-17T05:23:05;102045.88;;;6.36;76.10
39773;BME280;25451;51.960;6.250;2024-03-17T05:25:30;102046.72;;;6.37;76.22
39773;BME280;25451;51.960;6.250;2024-03-17T05:28:01;102041.25;;;6.37;76.43
39773;BME280;25451;51.960;6.250;2024-03-17T05:30:26;102040.00;;;6.39;76.23
39773;BME280;25451;51.960;6.250;2024-03-17T05:32:52;102046.53;;;6.38;76.63
39773;BME280;25451;51.960;6.250;2024-03-17T05:35:17;102056.94;;;6.43;76.66
39773;BME280;25451;51.960;6.250;2024-03-17T05:37:42;102045.13;;;6.42;76.29
39773;BME280;25451;51.960;6.250;2024-03-17T05:40:10;102048.53;;;6.44;76.65
39773;BME280;25451;51.960;6.250;2024-03-17T05:42:37;102052.97;;;6.45;76.78
39773;BME280;25451;51.960;6.250;2024-03-17T05:45:03;102055.53;;;6.47;76.53
39773;BME280;25451;51.960;6.250;2024-03-17T05:47:28;102063.56;;;6.48;76.87
39773;BME280;25451;51.960;6.250;2024-03-17T05:49:54;102057.06;;;6.49;76.40
39773;BME280;25451;51.960;6.250;2024-03-17T05:52:21;102055.13;;;6.50;76.53
39773;BME280;25451;51.960;6.250;2024-03-17T05:54:46;102055.34;;;6.48;76.69
39773;BME280;25451;51.960;6.250;2024-03-17T05:57:12;102059.41;;;6.52;76.78
39773;BME280;25451;51.960;6.250;2024-03-17T05:59:39;102055.63;;;6.53;76.97
39773;BME280;25451;51.960;6.250;2024-03-17T06:02:04;102046.56;;;6.53;76.89
39773;BME280;25451;51.960;6.250;2024-03-17T06:04:29;102051.84;;;6.54;76.81
39773;BME280;25451;51.960;6.250;2024-03-17T06:06:55;102058.84;;;6.57;76.86
39773;BME280;25451;51.960;6.250;2024-03-17T06:09:20;102058.84;;;6.57;76.59
39773;BME280;25451;51.960;6.250;2024-03-17T06:11:48;102046.81;;;6.58;76.95
39773;BME280;25451;51.960;6.250;2024-03-17T06:14:13;102058.44;;;6.60;76.88
39773;BME280;25451;51.960;6.250;2024-03-17T06:16:39;102056.75;;;6.59;76.85
39773;BME280;25451;51.960;6.250;2024-03-17T06:19:04;102048.13;;;6.62;76.82
39773;BME280;25451;51.960;6.250;2024-03-17T06:21:30;102047.13;;;6.63;76.98
39773;BME280;25451;51.960;6.250;2024-03-17T06:23:55;102041.63;;;6.63;76.95
39773;BME280;25451;51.960;6.250;2024-03-17T06:26:21;102041.44;;;6.64;76.97
39773;BME280;25451;51.960;6.250;2024-03-17T06:28:46;102044.84;;;6.66;76.92
39773;BME280;25451;51.960;6.250;2024-03-17T06:31:12;102039.34;;;6.66;76.37
39773;BME280;25451;51.960;6.250;2024-03-17T06:33:37;102042.75;;;6.68;76.66
39773;BME280;25451;51.960;6.250;2024-03-17T06:36:03;102046.34;;;6.69;76.83
39773;BME280;25451;51.960;6.250;2024-03-17T06:38:29;102040.88;;;6.69;77.11
39773;BME280;25451;51.960;6.250;2024-03-17T06:40:54;102049.97;;;6.69;77.03
39773;BME280;25451;51.960;6.250;2024-03-17T06:43:20;102049.75;;;6.71;76.94
39773;BME280;25451;51.960;6.250;2024-03-17T06:45:59;102045.13;;;6.72;76.68
39773;BME280;25451;51.960;6.250;2024-03-17T06:48:25;102044.75;;;6.75;76.99
39773;BME280;25451;51.960;6.250;2024-03-17T06:50:52;102035.00;;;6.72;77.02
39773;BME280;25451;51.960;6.250;2024-03-17T06:53:19;102036.13;;;6.78;76.79
39773;BME280;25451;51.960;6.250;2024-03-17T06:55:54;102026.19;;;6.77;76.68
39773;BME280;25451;51.960;6.250;2024-03-17T06:58:21;102042.28;;;6.80;77.54
39773;BME280;25451;51.960;6.250;2024-03-17T07:00:58;102034.53;;;6.83;76.63
39773;BME280;25451;51.960;6.250;2024-03-17T07:03:29;102033.28;;;6.86;76.59
39773;BME280;25451;51.960;6.250;2024-03-17T07:05:56;102034.41;;;6.91;77.15
39773;BME280;25451;51.960;6.250;2024-03-17T07:08:23;102030.44;;;6.94;76.46
39773;BME280;25451;51.960;6.250;2024-03-17T07:10:59;102025.22;;;6.99;76.97
39773;BME280;25451;51.960;6.250;2024-03-17T07:13:25;102032.00;;;7.03;76.63
39773;BME280;25451;51.960;6.250;2024-03-17T07:15:50;102024.28;;;7.06;76.83
39773;BME280;25451;51.960;6.250;2024-03-17T07:18:16;102015.63;;;7.09;76.64
39773;BME280;25451;51.960;6.250;2024-03-17T07:20:41;102026.69;;;7.16;76.33
39773;BME280;25451;51.960;6.250;2024-03-17T07:23:07;102029.69;;;7.21;76.63
39773;BME280;25451;51.960;6.250;2024-03-17T07:25:32;102031.00;;;7.25;76.27
39773;BME280;25451;51.960;6.250;2024-03-17T07:27:57;102024.78;;;7.31;76.56
39773;BME280;25451;51.960;6.250;2024-03-17T07:30:23;102026.53;;;7.38;76.44
39773;BME280;25451;51.960;6.250;2024-03-17T07:32:48;102033.81;;;7.46;76.05
39773;BME280;25451;51.960;6.250;2024-03-17T07:35:13;102034.91;;;7.51;76.57
39773;BME280;25451;51.960;6.250;2024-03-17T07:37:39;102035.25;;;7.63;76.47
39773;BME280;25451;51.960;6.250;2024-03-17T07:40:05;102037.03;;;7.71;76.23
39773;BME280;25451;51.960;6.250;2024-03-17T07:42:32;102038.78;;;7.78;75.99
39773;BME280;25451;51.960;6.250;2024-03-17T07:44:57;102045.44;;;7.90;75.91
39773;BME280;25451;51.960;6.250;2024-03-17T07:47:23;102044.28;;;7.99;75.75
39773;BME280;25451;51.960;6.250;2024-03-17T07:49:48;102043.06;;;8.08;76.01
39773;BME280;25451;51.960;6.250;2024-03-17T07:52:13;102044.84;;;8.16;75.89
39773;BME280;25451;51.960;6.250;2024-03-17T07:54:39;102043.84;;;8.23;76.15
39773;BME280;25451;51.960;6.250;2024-03-17T07:57:04;102026.97;;;8.26;75.74
39773;BME280;25451;51.960;6.250;2024-03-17T07:59:29;102045.00;;;8.35;75.86
39773;BME280;25451;51.960;6.250;2024-03-17T08:01:56;102054.63;;;8.46;76.30
39773;BME280;25451;51.960;6.250;2024-03-17T08:04:22;102060.34;;;8.51;76.22
39773;BME280;25451;51.960;6.250;2024-03-17T08:06:47;102065.72;;;8.59;76.11
39773;BME280;25451;51.960;6.250;2024-03-17T08:09:12;102058.34;;;8.66;75.95
39773;BME280;25451;51.960;6.250;2024-03-17T08:11:38;102061.16;;;8.73;76.15
39773;BME280;25451;51.960;6.250;2024-03-17T08:14:04;102057.38;;;8.80;75.98
39773;BME280;25451;51.960;6.250;2024-03-17T08:16:30;102055.69;;;8.86;76.21
39773;BME280;25451;51.960;6.250;2024-03-17T08:18:56;102059.16;;;8.94;76.05
39773;BME280;25451;51.960;6.250;2024-03-17T08:21:22;102061.94;;;9.01;76.06
39773;BME280;25451;51.960;6.250;2024-03-17T08:23:47;102076.59;;;9.08;75.94
39773;BME280;25451;51.960;6.250;2024-03-17T08:26:13;102064.75;;;9.14;76.03
39773;BME280;25451;51.960;6.250;2024-03-17T08:28:38;102067.53;;;9.20;76.19
39773;BME280;25451;51.960;6.250;2024-03-17T08:31:04;102065.88;;;9.26;76.18
39773;BME280;25451;51.960;6.250;2024-03-17T08:33:30;102062.28;;;9.32;75.97
39773;BME280;25451;51.960;6.250;2024-03-17T08:36:06;102055.94;;;9.38;76.22
39773;BME280;25451;51.960;6.250;2024-03-17T08:38:36;102055.78;;;9.46;76.18
39773;BME280;25451;51.960;6.250;2024-03-17T08:41:03;102047.31;;;9.54;76.21
39773;BME280;25451;51.960;6.250;2024-03-17T08:43:33;102043.28;;;9.63;76.11
39773;BME280;25451;51.960;6.250;2024-03-17T08:46:05;102038.44;;;9.72;76.21
39773;BME280;25451;51.960;6.250;2024-03-17T08:48:38;102039.47;;;9.77;76.38
39773;BME280;25451;51.960;6.250;2024-03-17T08:51:05;102046.28;;;9.88;76.15
39773;BME280;25451;51.960;6.250;2024-03-17T08:53:31;102048.03;;;9.95;76.38
39773;BME280;25451;51.960;6.250;2024-03-17T08:55:58;102045.25;;;10.09;76.12
39773;BME280;25451;51.960;6.250;2024-03-17T08:58:24;102046.78;;;10.18;76.07
39773;BME280;25451;51.960;6.250;2024-03-17T09:00:49;102048.03;;;10.28;76.03
39773;BME280;25451;51.960;6.250;2024-03-17T09:03:15;102045.09;;;10.36;76.20
39773;BME280;25451;51.960;6.250;2024-03-17T09:05:42;102041.66;;;10.47;76.36
39773;BME280;25451;51.960;6.250;2024-03-17T09:08:16;102042.91;;;10.58;76.21
39773;BME280;25451;51.960;6.250;2024-03-17T09:10:43;102033.78;;;10.64;76.34
39773;BME280;25451;51.960;6.250;2024-03-17T09:13:13;102034.19;;;10.74;76.32
39773;BME280;25451;51.960;6.250;2024-03-17T09:15:39;102037.78;;;10.81;76.35
39773;BME280;25451;51.960;6.250;2024-03-17T09:18:05;102035.81;;;10.88;76.37
39773;BME280;25451;51.960;6.250;2024-03-17T09:20:30;102031.56;;;10.92;76.15
39773;BME280;25451;51.960;6.250;2024-03-17T09:22:56;102025.41;;;10.97;76.30
39773;BME280;25451;51.960;6.250;2024-03-17T09:25:21;102030.47;;;11.00;76.39
39773;BME280;25451;51.960;6.250;2024-03-17T09:27:47;102031.72;;;11.04;76.51
39773;BME280;25451;51.960;6.250;2024-03-17T09:30:12;102031.53;;;11.05;76.29
39773;BME280;25451;51.960;6.250;2024-03-17T09:32:37;102028.31;;;11.08;76.19
39773;BME280;25451;51.960;6.250;2024-03-17T09:35:04;102027.25;;;11.09;76.24
39773;BME280;25451;51.960;6.250;2024-03-17T09:37:30;102015.75;;;11.12;76.44
39773;BME280;25451;51.960;6.250;2024-03-17T09:39:57;102020.00;;;11.15;76.13
39773;BME280;25451;51.960;6.250;2024-03-17T09:42:23;102009.59;;;11.17;76.12
39773;BME280;25451;51.960;6.250;2024-03-17T09:44:50;102015.09;;;11.17;76.09
39773;BME280;25451;51.960;6.250;2024-03-17T09:47:21;102025.50;;;11.21;76.17
39773;BME280;25451;51.960;6.250;2024-03-17T09:49:47;102020.59;;;11.23;76.21
39773;BME280;25451;51.960;6.250;2024-03-17T09:52:24;102019.53;;;11.24;76.21
39773;BME280;25451;51.960;6.250;2024-03-17T09:55:00;102019.09;;;11.27;76.18
39773;BME280;25451;51.960;6.250;2024-03-17T09:57:26;102023.53;;;11.28;75.83
39773;BME280;25451;51.960;6.250;2024-03-17T09:59:54;102018.66;;;11.30;75.57
39773;BME280;25451;51.960;6.250;2024-03-17T10:02:20;102017.59;;;11.31;75.43
39773;BME280;25451;51.960;6.250;2024-03-17T10:04:45;102030.13;;;11.34;75.22
39773;BME280;25451;51.960;6.250;2024-03-17T10:07:11;102015.47;;;11.33;75.22
39773;BME280;25451;51.960;6.250;2024-03-17T10:09:36;102021.59;;;11.35;75.02
39773;BME280;25451;51.960;6.250;2024-03-17T10:12:02;102016.09;;;11.35;74.75
39773;BME280;25451;51.960;6.250;2024-03-17T10:14:28;102004.41;;;11.33;74.83
39773;BME280;25451;51.960;6.250;2024-03-17T10:16:54;102014.38;;;11.34;74.47
39773;BME280;25451;51.960;6.250;2024-03-17T10:19:24;102005.25;;;11.34;74.37
39773;BME280;25451;51.960;6.250;2024-03-17T10:21:58;102014.38;;;11.34;74.23
39773;BME280;25451;51.960;6.250;2024-03-17T10:24:26;102013.53;;;11.34;74.22
39773;BME280;25451;51.960;6.250;2024-03-17T10:29:29;102012.91;;;11.32;73.80
39773;BME280;25451;51.960;6.250;2024-03-17T10:32:21;102019.28;;;11.32;73.80
39773;BME280;25451;51.960;6.250;2024-03-17T10:34:49;102015.47;;;11.33;73.67
39773;BME280;25451;51.960;6.250;2024-03-17T10:37:18;102000.16;;;11.31;73.72
39773;BME280;25451;51.960;6.250;2024-03-17T10:39:52;102020.53;;;11.36;73.58
39773;BME280;25451;51.960;6.250;2024-03-17T10:42:26;102016.72;;;11.37;73.54
39773;BME280;25451;51.960;6.250;2024-03-17T10:44:57;102017.56;;;11.38;73.70
39773;BME280;25451;51.960;6.250;2024-03-17T10:47:25;102011.97;;;11.44;73.82
39773;BME280;25451;51.960;6.250;2024-03-17T10:49:52;102005.38;;;11.45;73.71
39773;BME280;25451;51.960;6.250;2024-03-17T10:52:18;102010.47;;;11.48;73.33
39773;BME280;25451;51.960;6.250;2024-03-17T10:54:51;102007.03;;;11.53;73.43
39773;BME280;25451;51.960;6.250;2024-03-17T11:00:03;102002.13;;;11.55;73.64
39773;BME280;25451;51.960;6.250;2024-03-17T11:02:34;101996.59;;;11.55;73.54
39773;BME280;25451;51.960;6.250;2024-03-17T11:05:05;101999.75;;;11.58;73.60
39773;BME280;25451;51.960;6.250;2024-03-17T11:07:31;102000.41;;;11.60;73.43
39773;BME280;25451;51.960;6.250;2024-03-17T11:09:59;101997.66;;;11.60;73.64
39773;BME280;25451;51.960;6.250;2024-03-17T11:17:54;101995.69;;;11.68;73.55
39773;BME280;25451;51.960;6.250;2024-03-17T11:20:23;101996.31;;;11.70;73.18
39773;BME280;25451;51.960;6.250;2024-03-17T11:22:50;101996.94;;;11.72;73.42
39773;BME280;25451;51.960;6.250;2024-03-17T11:27:53;101994.38;;;11.77;73.43
39773;BME280;25451;51.960;6.250;2024-03-17T11:38:56;102004.88;;;11.93;73.02
39773;BME280;25451;51.960;6.250;2024-03-17T11:46:44;102013.28;;;12.04;72.64
39773;BME280;25451;51.960;6.250;2024-03-17T11:51:57;101996.03;;;12.09;72.69
39773;BME280;25451;51.960;6.250;2024-03-17T11:54:24;101995.97;;;12.15;72.71
39773;BME280;25451;51.960;6.250;2024-03-17T11:56:53;101988.06;;;12.19;72.75
39773;BME280;25451;51.960;6.250;2024-03-17T11:59:19;101979.28;;;12.22;72.41
39773;BME280;25451;51.960;6.250;2024-03-17T12:01:49;101978.38;;;12.28;72.31
39773;BME280;25451;51.960;6.250;2024-03-17T12:04:16;101972.38;;;12.31;72.31
39773;BME280;25451;51.960;6.250;2024-03-17T12:06:45;101969.16;;;12.34;72.47
39773;BME280;25451;51.960;6.250;2024-03-17T12:09:24;101971.47;;;12.37;72.08
39773;BME280;25451;51.960;6.250;2024-03-17T12:12:11;101965.47;;;12.40;72.07
39773;BME280;25451;51.960;6.250;2024-03-17T12:14:38;101961.38;;;12.42;72.25
39773;BME280;25451;51.960;6.250;2024-03-17T12:17:11;101959.03;;;12.46;72.03
39773;BME280;25451;51.960;6.250;2024-03-17T12:19:37;101959.66;;;12.48;72.23
39773;BME280;25451;51.960;6.250;2024-03-17T12:22:04;101952.78;;;12.50;71.88
39773;BME280;25451;51.960;6.250;2024-03-17T12:24:34;101952.78;;;12.50;71.92
39773;BME280;25451;51.960;6.250;2024-03-17T12:27:03;101950.63;;;12.52;71.71
39773;BME280;25451;51.960;6.250;2024-03-17T12:29:31;101948.47;;;12.55;71.97
39773;BME280;25451;51.960;6.250;2024-03-17T12:32:03;101934.63;;;12.55;71.69
39773;BME280;25451;51.960;6.250;2024-03-17T12:34:32;101937.81;;;12.58;71.67
39773;BME280;25451;51.960;6.250;2024-03-17T12:36:59;101933.94;;;12.59;71.70
39773;BME280;25451;51.960;6.250;2024-03-17T12:39:26;101933.69;;;12.61;71.52
39773;BME280;25451;51.960;6.250;2024-03-17T12:42:11;101933.00;;;12.65;71.55
39773;BME280;25451;51.960;6.250;2024-03-17T12:47:16;101917.63;;;12.69;71.51
39773;BME280;25451;51.960;6.250;2024-03-17T12:49:52;101907.16;;;12.71;71.22
39773;BME280;25451;51.960;6.250;2024-03-17T12:52:25;101905.63;;;12.75;71.37
39773;BME280;25451;51.960;6.250;2024-03-17T12:55:05;101905.97;;;12.79;71.17
39773;BME280;25451;51.960;6.250;2024-03-17T13:00:47;101905.91;;;12.85;71.03
39773;BME280;25451;51.960;6.250;2024-03-17T13:03:25;101900.34;;;12.85;70.75
39773;BME280;25451;51.960;6.250;2024-03-17T13:05:51;101896.03;;;12.89;70.74
39773;BME280;25451;51.960;6.250;2024-03-17T13:08:17;101887.03;;;12.94;70.72
39773;BME280;25451;51.960;6.250;2024-03-17T13:10:43;101887.41;;;12.97;70.75
39773;BME280;25451;51.960;6.250;2024-03-17T13:13:09;101876.31;;;12.97;70.69
39773;BME280;25451;51.960;6.250;2024-03-17T13:15:35;101879.50;;;13.01;70.68
39773;BME280;25451;51.960;6.250;2024-03-17T13:18:02;101884.56;;;13.04;70.49
39773;BME280;25451;51.960;6.250;2024-03-17T13:20:29;101877.13;;;13.04;70.42
39773;BME280;25451;51.960;6.250;2024-03-17T13:22:54;101877.47;;;13.08;70.49
39773;BME280;25451;51.960;6.250;2024-03-17T13:25:21;101866.16;;;13.09;70.47
39773;BME280;25451;51.960;6.250;2024-03-17T13:27:49;101867.59;;;13.12;70.44
39773;BME280;25451;51.960;6.250;2024-03-17T13:30:16;101866.53;;;13.13;70.18
39773;BME280;25451;51.960;6.250;2024-03-17T13:32:42;101855.22;;;13.14;70.48